createdAt,value
2017-07-08T00:02:03.614Z,14.20
2017-07-08T00:04:31.180Z,13.40
2017-07-08T00:06:58.739Z,12.43
2017-07-08T00:09:26.361Z,13.30
2017-07-08T00:11:53.908Z,12.30
2017-07-08T00:14:21.472Z,13.43
2017-07-08T00:16:49.081Z,12.50
2017-07-08T00:19:16.692Z,15.20
2017-07-08T00:21:44.265Z,17.17
2017-07-08T00:24:11.815Z,14.03
2017-07-08T00:26:39.373Z,14.33
2017-07-08T00:29:06.945Z,12.80
2017-07-08T00:31:34.467Z,11.33
2017-07-08T00:34:02.428Z,10.30
2017-07-08T00:36:30.037Z,10.87
2017-07-08T00:38:57.576Z,11.40
2017-07-08T00:41:25.101Z,10.90
2017-07-08T00:43:52.663Z,11.73
2017-07-08T00:46:20.180Z,12.10
2017-07-08T00:48:47.784Z,12.30
2017-07-08T00:51:15.356Z,12.90
2017-07-08T00:53:42.898Z,11.40
2017-07-08T00:56:10.604Z,12.77
2017-07-08T00:58:38.133Z,10.80
2017-07-08T01:01:05.700Z,10.50
2017-07-08T01:03:33.258Z,10.03
2017-07-08T01:06:00.792Z,10.90
2017-07-08T01:08:28.341Z,10.77
2017-07-08T01:10:55.903Z,10.40
2017-07-08T01:13:23.427Z,11.33
2017-07-08T01:15:50.991Z,9.77
2017-07-08T01:18:18.533Z,10.47
2017-07-08T01:20:46.100Z,10.73
2017-07-08T01:23:13.627Z,11.53
2017-07-08T01:25:41.175Z,11.33
2017-07-08T01:28:08.707Z,10.73
2017-07-08T01:30:36.264Z,11.60
2017-07-08T01:33:03.786Z,12.97
2017-07-08T01:35:31.312Z,12.60
2017-07-08T01:37:58.867Z,12.97
2017-07-08T01:40:26.380Z,12.67
2017-07-08T01:42:53.933Z,13.90
2017-07-08T01:45:21.444Z,13.10
2017-07-08T01:47:49.089Z,11.90
2017-07-08T01:50:16.638Z,13.83
2017-07-08T01:52:44.220Z,15.27
2017-07-08T01:55:11.931Z,16.90
2017-07-08T01:57:39.476Z,16.07
2017-07-08T02:00:06.997Z,15.30
2017-07-08T02:02:34.536Z,16.07
2017-07-08T02:05:02.087Z,16.93
2017-07-08T02:07:29.659Z,15.30
2017-07-08T02:09:57.256Z,17.10
2017-07-08T02:12:24.787Z,18.23
2017-07-08T02:14:52.499Z,17.47
2017-07-08T02:17:20.049Z,18.40
2017-07-08T02:19:47.591Z,19.10
2017-07-08T02:22:15.119Z,17.67
2017-07-08T02:24:42.831Z,18.73
2017-07-08T02:27:10.378Z,19.40
2017-07-08T02:29:37.939Z,19.77
2017-07-08T02:32:05.508Z,18.30
2017-07-08T02:34:33.115Z,18.50
2017-07-08T02:37:00.656Z,19.17
2017-07-08T02:39:28.228Z,19.20
2017-07-08T02:41:55.768Z,20.37
2017-07-08T02:44:23.323Z,18.17
2017-07-08T02:46:50.896Z,19.90
2017-07-08T02:49:18.451Z,19.07
2017-07-08T02:51:45.984Z,19.97
2017-07-08T02:54:13.560Z,19.87
2017-07-08T02:56:41.104Z,19.93
2017-07-08T02:59:08.720Z,23.37
2017-07-08T03:01:36.294Z,20.57
2017-07-08T03:04:03.850Z,21.07
2017-07-08T03:06:31.382Z,20.00
2017-07-08T03:08:58.962Z,20.67
2017-07-08T03:11:26.484Z,20.97
2017-07-08T03:13:54.100Z,18.37
2017-07-08T03:16:21.616Z,20.20
2017-07-08T03:18:49.163Z,18.50
2017-07-08T03:21:16.686Z,17.30
2017-07-08T03:23:44.247Z,17.93
2017-07-08T03:26:11.776Z,17.37
2017-07-08T03:28:39.361Z,18.90
2017-07-08T03:31:06.891Z,18.10
2017-07-08T03:33:34.449Z,16.47
2017-07-08T03:36:01.985Z,18.60
2017-07-08T03:38:29.585Z,17.70
2017-07-08T03:40:57.119Z,16.80
2017-07-08T03:43:24.758Z,18.27
2017-07-08T03:45:52.289Z,16.57
2017-07-08T03:48:19.821Z,19.60
2017-07-08T03:50:47.497Z,14.67
2017-07-08T03:53:15.138Z,15.23
2017-07-08T03:55:42.683Z,16.63
2017-07-08T03:58:10.397Z,16.43
2017-07-08T04:00:37.957Z,15.13
2017-07-08T04:03:05.495Z,16.10
2017-07-08T04:05:33.063Z,14.77
2017-07-08T04:08:00.591Z,15.70
2017-07-08T04:10:28.156Z,16.30
2017-07-08T04:12:55.780Z,16.77
2017-07-08T04:15:23.347Z,15.17
2017-07-08T04:17:50.883Z,16.60
2017-07-08T04:20:18.456Z,16.40
2017-07-08T04:22:45.985Z,15.30
2017-07-08T04:25:13.740Z,14.10
2017-07-08T04:27:41.252Z,12.57
2017-07-08T04:30:08.831Z,14.63
2017-07-08T04:32:36.402Z,14.57
2017-07-08T04:35:04.042Z,13.73
2017-07-08T04:37:31.648Z,13.67
2017-07-08T04:39:59.224Z,14.10
2017-07-08T04:42:26.841Z,14.80
2017-07-08T04:44:54.407Z,12.53
2017-07-08T04:47:21.979Z,13.07
2017-07-08T04:49:49.531Z,13.67
2017-07-08T04:52:17.097Z,14.23
2017-07-08T04:54:44.723Z,14.67
2017-07-08T04:57:12.251Z,14.27
2017-07-08T04:59:39.814Z,14.97
2017-07-08T05:02:07.332Z,15.70
2017-07-08T05:04:34.882Z,14.40
2017-07-08T05:07:02.414Z,14.47
2017-07-08T05:09:29.984Z,16.70
2017-07-08T05:11:57.492Z,14.40
2017-07-08T05:14:25.039Z,15.77
2017-07-08T05:16:52.560Z,17.40
2017-07-08T05:19:20.145Z,16.27
2017-07-08T05:21:47.668Z,16.80
2017-07-08T05:24:15.220Z,17.30
2017-07-08T05:26:42.759Z,18.70
2017-07-08T05:29:10.319Z,17.30
2017-07-08T05:31:37.884Z,16.83
2017-07-08T05:34:05.415Z,17.37
2017-07-08T05:36:32.962Z,17.60
2017-07-08T05:39:00.488Z,18.40
2017-07-08T05:41:28.016Z,18.97
2017-07-08T05:43:55.570Z,19.73
2017-07-08T05:46:23.089Z,20.43
2017-07-08T05:48:50.638Z,21.20
2017-07-08T05:51:18.173Z,19.30
2017-07-08T05:53:45.717Z,19.57
2017-07-08T05:56:13.246Z,21.57
2017-07-08T05:58:40.953Z,19.37
2017-07-08T06:01:08.469Z,25.17
2017-07-08T06:03:36.000Z,22.67
2017-07-08T06:06:03.697Z,24.67
2017-07-08T06:08:31.299Z,23.00
2017-07-08T06:10:58.852Z,24.67
2017-07-08T06:13:26.469Z,22.30
2017-07-08T06:15:54.108Z,23.00
2017-07-08T06:18:21.631Z,23.27
2017-07-08T06:20:49.195Z,21.03
2017-07-08T06:23:16.726Z,21.07
2017-07-08T06:25:44.285Z,26.57
2017-07-08T06:28:11.817Z,28.17
2017-07-08T06:30:39.430Z,31.40
2017-07-08T06:33:07.025Z,28.70
2017-07-08T06:35:34.572Z,28.43
2017-07-08T06:38:02.118Z,29.53
2017-07-08T06:40:29.692Z,30.20
2017-07-08T06:42:57.217Z,28.93
2017-07-08T06:45:24.944Z,31.60
2017-07-08T06:47:52.494Z,31.90
2017-07-08T06:50:20.024Z,42.00
2017-07-08T06:52:47.632Z,44.30
2017-07-08T06:55:15.168Z,30.20
2017-07-08T06:57:42.740Z,30.83
2017-07-08T07:00:10.284Z,32.87
2017-07-08T07:02:37.900Z,31.93
2017-07-08T07:05:05.427Z,32.77
2017-07-08T07:07:33.016Z,30.40
2017-07-08T07:10:00.611Z,33.60
2017-07-08T07:12:28.196Z,33.23
2017-07-08T07:14:55.731Z,32.33
2017-07-08T07:17:23.319Z,34.93
2017-07-08T07:19:50.843Z,31.70
2017-07-08T07:22:18.585Z,31.07
2017-07-08T07:24:46.147Z,32.00
2017-07-08T07:27:13.672Z,39.90
2017-07-08T07:29:41.229Z,31.77
2017-07-08T07:32:08.781Z,30.80
2017-07-08T07:34:36.360Z,32.23
2017-07-08T07:37:03.899Z,29.67
2017-07-08T07:39:31.476Z,23.67
2017-07-08T07:41:58.989Z,28.53
2017-07-08T07:44:26.546Z,28.57
2017-07-08T07:46:54.071Z,30.97
2017-07-08T07:49:21.640Z,26.60
2017-07-08T07:51:49.166Z,28.63
2017-07-08T07:54:16.735Z,30.50
2017-07-08T07:56:44.313Z,30.87
2017-07-08T07:59:11.884Z,30.57
2017-07-08T08:01:39.412Z,27.67
2017-07-08T08:04:06.940Z,30.20
2017-07-08T08:06:34.591Z,31.30
2017-07-08T08:09:02.188Z,33.40
2017-07-08T08:11:29.708Z,28.47
2017-07-08T08:13:57.263Z,29.33
2017-07-08T08:16:24.804Z,29.67
2017-07-08T08:18:52.389Z,28.20
2017-07-08T08:21:20.024Z,26.17
2017-07-08T08:23:47.676Z,29.10
2017-07-08T08:26:15.212Z,26.17
2017-07-08T08:28:42.758Z,25.77
2017-07-08T08:31:10.315Z,20.30
2017-07-08T08:33:37.849Z,18.07
2017-07-08T08:36:05.417Z,19.20
2017-07-08T08:38:32.932Z,23.67
2017-07-08T08:41:00.484Z,15.63
2017-07-08T08:43:28.151Z,19.40
2017-07-08T08:45:55.724Z,16.57
2017-07-08T08:48:23.300Z,16.83
2017-07-08T08:50:50.840Z,16.10
2017-07-08T08:53:18.320Z,10.27
2017-07-08T08:55:45.888Z,18.27
2017-07-08T08:58:13.421Z,19.17
2017-07-08T09:00:40.979Z,15.50
2017-07-08T09:03:08.501Z,14.20
2017-07-08T09:05:36.051Z,10.50
2017-07-08T09:08:03.656Z,10.50
2017-07-08T09:10:31.215Z,10.37
2017-07-08T09:12:58.723Z,11.07
2017-07-08T09:15:26.297Z,11.00
2017-07-08T09:17:53.821Z,10.93
2017-07-08T09:20:21.337Z,7.60
2017-07-08T09:22:48.868Z,6.17
2017-07-08T09:25:16.387Z,6.37
2017-07-08T09:27:43.993Z,7.37
2017-07-08T09:30:11.544Z,6.20
2017-07-08T09:32:39.331Z,4.93
2017-07-08T09:35:06.844Z,9.20
2017-07-08T09:37:34.369Z,7.30
2017-07-08T09:40:01.939Z,9.57
2017-07-08T09:42:29.450Z,8.17
2017-07-08T09:44:57.005Z,8.90
2017-07-08T09:47:24.537Z,8.97
2017-07-08T09:49:52.107Z,7.80
2017-07-08T09:52:19.662Z,7.90
2017-07-08T09:54:47.207Z,7.07
2017-07-08T09:57:14.754Z,6.57
2017-07-08T09:59:42.324Z,8.40
2017-07-08T10:02:09.853Z,6.90
2017-07-08T10:04:37.387Z,6.80
2017-07-08T10:07:04.979Z,7.70
2017-07-08T10:09:32.509Z,6.60
2017-07-08T10:12:00.059Z,6.00
2017-07-08T10:14:27.588Z,6.77
2017-07-08T10:16:55.152Z,6.23
2017-07-08T10:19:22.657Z,6.73
2017-07-08T10:21:50.231Z,5.90
2017-07-08T10:24:17.761Z,5.63
2017-07-08T10:26:45.317Z,5.90
2017-07-08T10:29:12.865Z,6.50
2017-07-08T10:31:40.450Z,5.90
2017-07-08T10:34:07.964Z,5.33
2017-07-08T10:36:35.515Z,4.43
2017-07-08T10:39:03.084Z,4.23
2017-07-08T10:41:30.620Z,5.40
2017-07-08T10:43:58.183Z,4.93
2017-07-08T10:46:25.730Z,5.57
2017-07-08T10:48:53.276Z,5.10
2017-07-08T10:51:20.868Z,4.60
2017-07-08T10:53:48.421Z,5.30
2017-07-08T10:56:15.956Z,7.10
2017-07-08T10:58:43.503Z,6.90
2017-07-08T11:01:11.042Z,6.53
2017-07-08T11:03:38.597Z,6.37
2017-07-08T11:06:06.119Z,36.37
2017-07-08T11:08:33.670Z,9.90
2017-07-08T11:11:01.186Z,7.83
2017-07-08T11:13:28.728Z,6.83
2017-07-08T11:15:56.246Z,5.63
2017-07-08T11:18:23.965Z,7.20
2017-07-08T11:20:51.489Z,6.50
2017-07-08T11:23:19.017Z,7.37
2017-07-08T11:25:46.552Z,5.90
2017-07-08T11:28:14.076Z,4.90
2017-07-08T11:30:41.618Z,5.13
2017-07-08T11:33:09.183Z,7.23
2017-07-08T11:35:36.711Z,7.77
2017-07-08T11:38:04.224Z,7.40
2017-07-08T11:40:31.772Z,6.67
2017-07-08T11:42:59.340Z,6.27
2017-07-08T11:45:26.863Z,6.07
2017-07-08T11:47:54.433Z,6.93
2017-07-08T11:50:21.961Z,5.37
2017-07-08T11:52:49.475Z,6.03
2017-07-08T11:55:17.082Z,5.80
2017-07-08T11:57:44.600Z,6.30
2017-07-08T12:00:12.159Z,6.37
2017-07-08T12:02:39.664Z,6.40
2017-07-08T12:05:07.220Z,5.20
2017-07-08T12:07:34.746Z,5.17
2017-07-08T12:10:02.301Z,5.10
2017-07-08T12:12:29.824Z,5.87
2017-07-08T12:14:57.382Z,5.20
2017-07-08T12:17:24.906Z,5.40
2017-07-08T12:19:52.629Z,8.33
2017-07-08T12:22:20.156Z,4.90
2017-07-08T12:24:47.684Z,5.40
2017-07-08T12:27:15.232Z,4.77
2017-07-08T12:29:43.660Z,3.97
2017-07-08T12:32:11.199Z,3.60
2017-07-08T12:34:38.720Z,4.07
2017-07-08T12:37:06.383Z,4.50
2017-07-08T12:39:33.925Z,3.67
2017-07-08T12:42:01.665Z,3.93
2017-07-08T12:44:29.192Z,5.13
2017-07-08T12:46:56.768Z,3.57
2017-07-08T12:49:24.283Z,3.97
2017-07-08T12:51:51.839Z,4.17
2017-07-08T12:54:19.358Z,6.22
2017-07-08T12:56:46.887Z,5.93
2017-07-08T12:59:14.423Z,4.10
2017-07-08T13:01:42.125Z,4.70
2017-07-08T13:04:09.670Z,4.87
2017-07-08T13:06:37.187Z,4.07
2017-07-08T13:09:04.741Z,4.67
2017-07-08T13:11:32.260Z,4.93
2017-07-08T13:13:59.799Z,4.20
2017-07-08T13:16:27.324Z,5.20
2017-07-08T13:18:55.007Z,4.40
2017-07-08T13:21:22.616Z,4.30
2017-07-08T13:23:50.239Z,4.10
2017-07-08T13:26:17.773Z,4.47
2017-07-08T13:28:45.451Z,4.00
2017-07-08T13:31:13.032Z,4.03
2017-07-08T13:33:40.552Z,3.70
2017-07-08T13:36:08.116Z,4.60
2017-07-08T13:38:35.637Z,4.30
2017-07-08T13:41:03.178Z,4.80
2017-07-08T13:43:30.701Z,4.30
2017-07-08T13:45:58.256Z,3.97
2017-07-08T13:48:25.774Z,3.83
2017-07-08T13:50:53.333Z,4.93
2017-07-08T13:53:20.892Z,4.57
2017-07-08T13:55:48.436Z,3.77
2017-07-08T13:58:15.948Z,3.23
2017-07-08T14:00:43.531Z,4.10
2017-07-08T14:03:11.046Z,3.87
2017-07-08T14:05:38.560Z,3.20
2017-07-08T14:08:06.112Z,4.23
2017-07-08T14:10:33.716Z,4.37
2017-07-08T14:13:01.214Z,4.33
2017-07-08T14:15:28.696Z,3.10
2017-07-08T14:17:56.984Z,3.60
2017-07-08T14:22:58.343Z,4.83
2017-07-08T14:25:25.861Z,2.77
2017-07-08T14:27:53.427Z,3.20
2017-07-08T14:30:20.936Z,3.47
2017-07-08T14:32:48.533Z,3.40
2017-07-08T14:35:16.155Z,3.10
2017-07-08T14:37:43.745Z,2.60
2017-07-08T14:40:11.327Z,2.63
2017-07-08T14:42:38.843Z,2.50
2017-07-08T14:45:06.412Z,2.03
2017-07-08T14:47:33.996Z,2.27
2017-07-08T14:50:01.666Z,2.57
2017-07-08T14:52:29.329Z,2.17
2017-07-08T14:54:56.877Z,2.60
2017-07-08T14:57:24.400Z,3.00
2017-07-08T14:59:52.203Z,6.10
2017-07-08T15:02:19.727Z,3.13
2017-07-08T15:04:47.262Z,2.50
2017-07-08T15:07:14.804Z,2.53
2017-07-08T15:09:42.365Z,2.63
2017-07-08T15:12:09.885Z,2.33
2017-07-08T15:14:37.422Z,2.23
2017-07-08T15:17:05.115Z,2.47
2017-07-08T15:19:32.630Z,2.50
2017-07-08T15:22:00.175Z,2.53
2017-07-08T15:24:27.705Z,2.00
2017-07-08T15:26:55.260Z,2.37
2017-07-08T15:29:22.797Z,4.40
2017-07-08T15:31:50.347Z,2.40
2017-07-08T15:34:17.885Z,3.00
2017-07-08T15:36:45.476Z,3.20
2017-07-08T15:39:13.018Z,2.97
2017-07-08T15:42:35.889Z,2.70
2017-07-08T15:45:02.589Z,2.50
2017-07-08T15:47:29.264Z,2.90
2017-07-08T15:49:55.968Z,3.40
2017-07-08T15:52:22.658Z,2.63
2017-07-08T15:54:50.431Z,2.70
2017-07-08T15:57:17.143Z,3.07
2017-07-08T15:59:43.863Z,3.07
2017-07-08T16:02:10.548Z,3.03
2017-07-08T16:04:37.274Z,6.37
2017-07-08T16:07:03.992Z,3.30
2017-07-08T16:09:30.682Z,4.00
2017-07-08T16:11:57.388Z,3.33
2017-07-08T16:14:24.082Z,2.90
2017-07-08T16:16:50.821Z,3.17
2017-07-08T16:19:17.528Z,4.63
2017-07-08T16:21:44.255Z,3.20
2017-07-08T16:24:10.959Z,3.60
2017-07-08T16:26:37.643Z,3.67
2017-07-08T16:29:04.403Z,3.80
2017-07-08T16:31:31.098Z,3.67
2017-07-08T16:33:57.808Z,2.97
2017-07-08T16:36:24.494Z,3.17
2017-07-08T16:38:51.225Z,3.00
2017-07-08T16:41:17.917Z,3.63
2017-07-08T16:43:44.707Z,3.60
2017-07-08T16:46:11.393Z,8.40
2017-07-08T16:48:38.111Z,3.27
2017-07-08T16:51:04.790Z,3.10
2017-07-08T16:53:31.506Z,2.97
2017-07-08T16:55:58.238Z,4.73
2017-07-08T16:58:24.965Z,3.23
2017-07-08T17:00:51.651Z,3.10
2017-07-08T17:03:18.362Z,3.17
2017-07-08T17:05:45.062Z,2.50
2017-07-08T17:08:11.786Z,3.07
2017-07-08T17:10:38.487Z,3.30
2017-07-08T17:13:05.208Z,3.80
2017-07-08T17:15:31.904Z,6.20
2017-07-08T17:17:58.627Z,4.43
2017-07-08T17:20:25.390Z,5.80
2017-07-08T17:22:52.110Z,4.63
2017-07-08T17:25:18.804Z,5.27
2017-07-08T17:27:45.526Z,6.30
2017-07-08T17:30:12.278Z,7.50
2017-07-08T17:32:38.986Z,6.23
2017-07-08T17:35:05.694Z,5.63
2017-07-08T17:37:32.446Z,6.33
2017-07-08T17:39:59.142Z,5.77
2017-07-08T17:42:25.867Z,7.47
2017-07-08T17:44:52.579Z,10.10
2017-07-08T17:47:19.338Z,7.97
2017-07-08T17:49:46.079Z,7.77
2017-07-08T17:52:12.804Z,7.40
2017-07-08T17:54:39.500Z,10.53
2017-07-08T17:57:06.205Z,7.20
2017-07-08T17:59:32.907Z,7.00
2017-07-08T18:01:59.622Z,7.07
2017-07-08T18:04:26.307Z,7.43
2017-07-08T18:06:53.038Z,7.23
2017-07-08T18:09:19.729Z,6.50
2017-07-08T18:11:46.455Z,6.10
2017-07-08T18:14:13.143Z,9.30
2017-07-08T18:16:39.831Z,7.07
2017-07-08T18:19:06.737Z,6.37
2017-07-08T18:21:33.426Z,12.37
2017-07-08T18:24:00.114Z,10.40
2017-07-08T18:26:26.839Z,8.00
2017-07-08T18:28:53.539Z,6.57
2017-07-08T18:31:20.269Z,6.30
2017-07-08T18:33:46.956Z,6.20
2017-07-08T18:36:13.650Z,6.97
2017-07-08T18:38:40.348Z,7.50
2017-07-08T18:41:07.079Z,6.53
2017-07-08T18:43:33.770Z,6.10
2017-07-08T18:46:00.479Z,6.70
2017-07-08T18:48:27.134Z,6.53
2017-07-08T18:50:53.864Z,5.60
2017-07-08T18:53:20.552Z,6.10
2017-07-08T18:55:47.276Z,6.80
2017-07-08T18:58:14.000Z,5.60
2017-07-08T19:00:40.699Z,6.80
2017-07-08T19:03:07.391Z,6.60
2017-07-08T19:05:34.122Z,6.77
2017-07-08T19:08:00.845Z,10.90
2017-07-08T19:10:27.582Z,6.50
2017-07-08T19:12:54.287Z,6.23
2017-07-08T19:15:21.261Z,7.40
2017-07-08T19:17:47.989Z,6.27
2017-07-08T19:20:14.702Z,5.97
2017-07-08T19:22:41.426Z,6.80
2017-07-08T19:25:08.138Z,6.63
2017-07-08T19:27:34.903Z,7.43
2017-07-08T19:30:01.634Z,7.47
2017-07-08T19:32:28.344Z,7.43
2017-07-08T19:34:55.039Z,7.87
2017-07-08T19:37:21.768Z,7.47
2017-07-08T19:39:48.451Z,9.43
2017-07-08T19:42:15.199Z,9.87
2017-07-08T19:44:41.923Z,9.03
2017-07-08T19:47:08.664Z,7.53
2017-07-08T19:49:35.351Z,7.70
2017-07-08T19:52:02.042Z,7.10
2017-07-08T19:54:28.905Z,6.90
2017-07-08T19:56:55.604Z,13.03
2017-07-08T19:59:22.331Z,23.90
2017-07-08T20:01:49.016Z,22.30
2017-07-08T20:04:15.735Z,8.03
2017-07-08T20:06:42.431Z,7.97
2017-07-08T20:09:09.151Z,7.07
2017-07-08T20:11:35.876Z,6.33
2017-07-08T20:14:03.168Z,7.37
2017-07-08T20:16:29.860Z,6.10
2017-07-08T20:18:56.579Z,8.27
2017-07-08T20:21:23.260Z,7.30
2017-07-08T20:23:50.063Z,8.20
2017-07-08T20:26:16.779Z,9.40
2017-07-08T20:28:43.506Z,9.30
2017-07-08T20:31:10.239Z,9.47
2017-07-08T20:33:36.949Z,8.20
2017-07-08T20:36:03.790Z,9.47
2017-07-08T20:38:30.552Z,8.47
2017-07-08T20:40:57.275Z,14.80
2017-07-08T20:43:24.021Z,10.47
2017-07-08T20:45:50.792Z,8.80
2017-07-08T20:48:17.519Z,9.40
2017-07-08T20:50:44.265Z,9.40
2017-07-08T20:53:10.988Z,9.30
2017-07-08T20:55:37.711Z,10.17
2017-07-08T20:58:04.498Z,10.80
2017-07-08T21:00:31.245Z,10.13
2017-07-08T21:02:57.939Z,11.80
2017-07-08T21:05:24.687Z,10.67
2017-07-08T21:07:51.411Z,10.40
2017-07-08T21:10:18.099Z,9.57
2017-07-08T21:12:44.803Z,9.30
2017-07-08T21:15:11.542Z,10.87
2017-07-08T21:17:38.239Z,9.10
2017-07-08T21:20:04.974Z,9.37
2017-07-08T21:22:31.674Z,10.27
2017-07-08T21:24:58.407Z,10.47
2017-07-08T21:27:25.104Z,9.80
2017-07-08T21:29:51.822Z,10.40
2017-07-08T21:32:18.569Z,11.47
2017-07-08T21:34:45.303Z,10.97
2017-07-08T21:37:12.003Z,11.07
2017-07-08T21:39:38.713Z,12.40
2017-07-08T21:42:05.439Z,13.30
2017-07-08T21:44:32.197Z,14.80
2017-07-08T21:46:58.910Z,12.97
2017-07-08T21:49:25.803Z,14.13
2017-07-08T21:51:52.514Z,13.47
2017-07-08T21:54:19.215Z,14.70
2017-07-08T21:56:45.943Z,14.63
2017-07-08T21:59:12.659Z,15.37
2017-07-08T22:01:39.385Z,14.40
2017-07-08T22:04:06.095Z,15.13
2017-07-08T22:06:32.845Z,15.73
2017-07-08T22:08:59.586Z,16.50
2017-07-08T22:11:26.334Z,15.63
2017-07-08T22:13:53.164Z,15.17
2017-07-08T22:16:19.923Z,16.00
2017-07-08T22:18:46.612Z,14.43
2017-07-08T22:21:13.331Z,15.17
2017-07-08T22:23:40.042Z,15.40
2017-07-08T22:26:06.774Z,15.80
2017-07-08T22:28:33.494Z,14.00
2017-07-08T22:31:00.242Z,14.70
2017-07-08T22:33:26.944Z,14.93
2017-07-08T22:35:53.651Z,16.47
2017-07-08T22:38:20.385Z,14.93
2017-07-08T22:40:47.185Z,14.60
2017-07-08T22:43:13.880Z,15.13
2017-07-08T22:45:40.669Z,13.47
2017-07-08T22:48:07.452Z,14.93
2017-07-08T22:50:34.153Z,14.80
2017-07-08T22:53:00.997Z,15.27
2017-07-08T22:55:27.711Z,14.87
2017-07-08T22:57:54.434Z,14.93
2017-07-08T23:00:21.148Z,14.37
2017-07-08T23:02:47.879Z,13.97
2017-07-08T23:05:14.614Z,13.33
2017-07-08T23:07:41.395Z,13.40
2017-07-08T23:10:08.112Z,14.50
2017-07-08T23:12:34.866Z,13.80
2017-07-08T23:15:01.665Z,13.70
2017-07-08T23:17:28.403Z,14.60
2017-07-08T23:19:55.138Z,12.30
2017-07-08T23:22:21.843Z,14.13
2017-07-08T23:24:48.581Z,15.40
2017-07-08T23:27:15.499Z,13.33
2017-07-08T23:29:42.198Z,14.07
2017-07-08T23:32:08.910Z,14.60
2017-07-08T23:34:35.676Z,14.00
2017-07-08T23:37:02.474Z,13.00
2017-07-08T23:39:29.212Z,12.80
2017-07-08T23:41:55.926Z,12.23
2017-07-08T23:44:22.651Z,14.10
2017-07-08T23:46:49.361Z,13.90
2017-07-08T23:49:16.149Z,13.70
2017-07-08T23:51:42.847Z,13.40
2017-07-08T23:54:09.593Z,12.57
2017-07-08T23:56:36.335Z,13.07
2017-07-08T23:59:03.155Z,12.70
